sensor_id;sensor_type;location;lat;lon;timestamp;P1;durP1;ratioP1;P2;durP2;ratioP2
51556;SDS011;38766;53.194;5.532;2023-09-19T00:01:23;9.38;;;2.33;;
51556;SDS011;38766;53.194;5.532;2023-09-19T00:03:49;9.23;;;3.03;;
51556;SDS011;38766;53.194;5.532;2023-09-19T00:06:14;7.57;;;2.10;;
51556;SDS011;38766;53.194;5.532;2023-09-19T00:08:41;8.65;;;2.58;;
51556;SDS011;38766;53.194;5.532;2023-09-19T00:11:09;11.05;;;3.33;;
51556;SDS011;38766;53.194;5.532;2023-09-19T00:13:36;8.10;;;2.42;;
51556;SDS011;38766;53.194;5.532;2023-09-19T00:16:08;12.35;;;2.78;;
51556;SDS011;38766;53.194;5.532;2023-09-19T00:18:35;11.30;;;2.40;;
51556;SDS011;38766;53.194;5.532;2023-09-19T00:21:04;8.60;;;2.22;;
51556;SDS011;38766;53.194;5.532;2023-09-19T00:23:30;8.65;;;2.78;;
51556;SDS011;38766;53.194;5.532;2023-09-19T00:25:59;7.35;;;2.28;;
51556;SDS011;38766;53.194;5.532;2023-09-19T00:28:26;9.00;;;2.25;;
51556;SDS011;38766;53.194;5.532;2023-09-19T00:30:51;4.35;;;2.25;;
51556;SDS011;38766;53.194;5.532;2023-09-19T00:33:20;8.13;;;1.98;;
51556;SDS011;38766;53.194;5.532;2023-09-19T00:35:53;10.15;;;2.33;;
51556;SDS011;38766;53.194;5.532;2023-09-19T00:38:20;7.35;;;2.63;;
51556;SDS011;38766;53.194;5.532;2023-09-19T00:40:48;6.93;;;2.05;;
51556;SDS011;38766;53.194;5.532;2023-09-19T00:43:16;7.55;;;2.05;;
51556;SDS011;38766;53.194;5.532;2023-09-19T00:45:43;8.75;;;1.95;;
51556;SDS011;38766;53.194;5.532;2023-09-19T00:48:10;11.43;;;3.08;;
51556;SDS011;38766;53.194;5.532;2023-09-19T00:50:37;6.38;;;2.40;;
51556;SDS011;38766;53.194;5.532;2023-09-19T00:53:07;9.05;;;2.42;;
51556;SDS011;38766;53.194;5.532;2023-09-19T00:55:33;9.13;;;2.45;;
51556;SDS011;38766;53.194;5.532;2023-09-19T00:57:59;6.97;;;2.45;;
51556;SDS011;38766;53.194;5.532;2023-09-19T01:00:26;7.45;;;2.38;;
51556;SDS011;38766;53.194;5.532;2023-09-19T01:02:52;10.05;;;2.55;;
51556;SDS011;38766;53.194;5.532;2023-09-19T01:05:17;9.35;;;2.30;;
51556;SDS011;38766;53.194;5.532;2023-09-19T01:07:43;8.23;;;2.35;;
51556;SDS011;38766;53.194;5.532;2023-09-19T01:10:13;7.75;;;2.30;;
51556;SDS011;38766;53.194;5.532;2023-09-19T01:17:48;6.57;;;1.92;;
51556;SDS011;38766;53.194;5.532;2023-09-19T01:22:53;12.95;;;2.10;;
51556;SDS011;38766;53.194;5.532;2023-09-19T01:36:25;7.63;;;2.20;;
51556;SDS011;38766;53.194;5.532;2023-09-19T01:38:51;10.73;;;2.28;;
51556;SDS011;38766;53.194;5.532;2023-09-19T01:41:43;12.07;;;2.10;;
51556;SDS011;38766;53.194;5.532;2023-09-19T01:44:29;7.97;;;2.25;;
51556;SDS011;38766;53.194;5.532;2023-09-19T01:47:19;7.65;;;2.13;;
51556;SDS011;38766;53.194;5.532;2023-09-19T01:53:15;7.25;;;2.50;;
51556;SDS011;38766;53.194;5.532;2023-09-19T01:55:41;7.82;;;2.35;;
51556;SDS011;38766;53.194;5.532;2023-09-19T01:58:16;10.18;;;2.33;;
51556;SDS011;38766;53.194;5.532;2023-09-19T02:00:47;10.05;;;2.03;;
51556;SDS011;38766;53.194;5.532;2023-09-19T02:03:17;9.73;;;2.38;;
51556;SDS011;38766;53.194;5.532;2023-09-19T02:05:50;14.57;;;3.13;;
51556;SDS011;38766;53.194;5.532;2023-09-19T02:08:20;8.65;;;2.10;;
51556;SDS011;38766;53.194;5.532;2023-09-19T02:10:49;12.80;;;2.25;;
51556;SDS011;38766;53.194;5.532;2023-09-19T02:13:19;9.35;;;2.28;;
51556;SDS011;38766;53.194;5.532;2023-09-19T02:15:46;8.52;;;2.20;;
51556;SDS011;38766;53.194;5.532;2023-09-19T02:18:14;8.57;;;2.45;;
51556;SDS011;38766;53.194;5.532;2023-09-19T02:20:41;7.53;;;2.08;;
51556;SDS011;38766;53.194;5.532;2023-09-19T02:23:07;8.65;;;2.28;;
51556;SDS011;38766;53.194;5.532;2023-09-19T02:25:33;10.30;;;2.50;;
51556;SDS011;38766;53.194;5.532;2023-09-19T02:28:00;7.03;;;2.05;;
51556;SDS011;38766;53.194;5.532;2023-09-19T02:30:28;10.85;;;2.22;;
51556;SDS011;38766;53.194;5.532;2023-09-19T02:32:54;12.23;;;2.30;;
51556;SDS011;38766;53.194;5.532;2023-09-19T02:35:20;7.80;;;1.95;;
51556;SDS011;38766;53.194;5.532;2023-09-19T02:37:46;5.07;;;2.00;;
51556;SDS011;38766;53.194;5.532;2023-09-19T02:40:12;7.43;;;2.10;;
51556;SDS011;38766;53.194;5.532;2023-09-19T02:42:48;10.25;;;1.90;;
51556;SDS011;38766;53.194;5.532;2023-09-19T02:45:17;7.15;;;1.70;;
51556;SDS011;38766;53.194;5.532;2023-09-19T02:47:46;8.43;;;1.77;;
51556;SDS011;38766;53.194;5.532;2023-09-19T02:50:13;6.20;;;2.00;;
51556;SDS011;38766;53.194;5.532;2023-09-19T02:52:41;6.75;;;2.10;;
51556;SDS011;38766;53.194;5.532;2023-09-19T02:55:09;7.05;;;2.38;;
51556;SDS011;38766;53.194;5.532;2023-09-19T02:57:35;10.68;;;2.45;;
51556;SDS011;38766;53.194;5.532;2023-09-19T03:00:05;8.07;;;2.33;;
51556;SDS011;38766;53.194;5.532;2023-09-19T03:02:36;6.53;;;2.10;;
51556;SDS011;38766;53.194;5.532;2023-09-19T03:05:02;6.95;;;2.38;;
51556;SDS011;38766;53.194;5.532;2023-09-19T03:07:29;7.68;;;2.53;;
51556;SDS011;38766;53.194;5.532;2023-09-19T03:09:54;8.23;;;2.50;;
51556;SDS011;38766;53.194;5.532;2023-09-19T03:12:20;7.55;;;2.08;;
51556;SDS011;38766;53.194;5.532;2023-09-19T03:14:46;8.70;;;1.95;;
51556;SDS011;38766;53.194;5.532;2023-09-19T03:17:11;7.40;;;2.10;;
51556;SDS011;38766;53.194;5.532;2023-09-19T03:19:39;9.48;;;2.50;;
51556;SDS011;38766;53.194;5.532;2023-09-19T03:22:05;5.00;;;1.90;;
51556;SDS011;38766;53.194;5.532;2023-09-19T03:24:32;9.75;;;2.22;;
51556;SDS011;38766;53.194;5.532;2023-09-19T03:27:00;9.15;;;2.33;;
51556;SDS011;38766;53.194;5.532;2023-09-19T03:29:26;10.65;;;2.28;;
51556;SDS011;38766;53.194;5.532;2023-09-19T03:31:52;6.72;;;2.22;;
51556;SDS011;38766;53.194;5.532;2023-09-19T03:34:19;8.18;;;2.20;;
51556;SDS011;38766;53.194;5.532;2023-09-19T03:36:45;9.38;;;2.67;;
51556;SDS011;38766;53.194;5.532;2023-09-19T03:39:11;10.40;;;2.55;;
51556;SDS011;38766;53.194;5.532;2023-09-19T03:41:37;8.27;;;2.00;;
51556;SDS011;38766;53.194;5.532;2023-09-19T03:44:02;8.15;;;2.15;;
51556;SDS011;38766;53.194;5.532;2023-09-19T03:46:28;8.10;;;2.35;;
51556;SDS011;38766;53.194;5.532;2023-09-19T03:48:55;10.73;;;2.13;;
51556;SDS011;38766;53.194;5.532;2023-09-19T03:51:20;8.48;;;2.35;;
51556;SDS011;38766;53.194;5.532;2023-09-19T03:53:46;8.77;;;2.53;;
51556;SDS011;38766;53.194;5.532;2023-09-19T03:56:14;7.88;;;1.90;;
51556;SDS011;38766;53.194;5.532;2023-09-19T03:58:40;14.75;;;2.55;;
51556;SDS011;38766;53.194;5.532;2023-09-19T04:01:05;6.63;;;2.10;;
51556;SDS011;38766;53.194;5.532;2023-09-19T04:03:32;8.48;;;2.65;;
51556;SDS011;38766;53.194;5.532;2023-09-19T04:06:15;11.82;;;2.58;;
51556;SDS011;38766;53.194;5.532;2023-09-19T04:08:42;9.68;;;2.00;;
51556;SDS011;38766;53.194;5.532;2023-09-19T04:11:09;5.97;;;2.20;;
51556;SDS011;38766;53.194;5.532;2023-09-19T04:13:35;8.65;;;2.30;;
51556;SDS011;38766;53.194;5.532;2023-09-19T04:16:01;8.13;;;2.85;;
51556;SDS011;38766;53.194;5.532;2023-09-19T04:18:32;12.10;;;2.40;;
51556;SDS011;38766;53.194;5.532;2023-09-19T04:21:02;13.15;;;2.40;;
51556;SDS011;38766;53.194;5.532;2023-09-19T04:23:29;9.00;;;2.20;;
51556;SDS011;38766;53.194;5.532;2023-09-19T04:25:55;9.02;;;1.98;;
51556;SDS011;38766;53.194;5.532;2023-09-19T04:28:20;9.88;;;2.10;;
51556;SDS011;38766;53.194;5.532;2023-09-19T04:30:47;7.47;;;2.10;;
51556;SDS011;38766;53.194;5.532;2023-09-19T04:33:13;15.10;;;2.92;;
51556;SDS011;38766;53.194;5.532;2023-09-19T04:35:41;9.55;;;1.80;;
51556;SDS011;38766;53.194;5.532;2023-09-19T04:38:07;8.57;;;2.20;;
51556;SDS011;38766;53.194;5.532;2023-09-19T04:40:33;12.82;;;2.58;;
51556;SDS011;38766;53.194;5.532;2023-09-19T04:42:59;12.02;;;2.47;;
51556;SDS011;38766;53.194;5.532;2023-09-19T04:45:25;12.00;;;3.05;;
51556;SDS011;38766;53.194;5.532;2023-09-19T04:47:52;10.82;;;2.13;;
51556;SDS011;38766;53.194;5.532;2023-09-19T04:50:19;11.18;;;2.65;;
51556;SDS011;38766;53.194;5.532;2023-09-19T04:52:48;9.07;;;2.22;;
51556;SDS011;38766;53.194;5.532;2023-09-19T04:55:15;8.32;;;3.00;;
51556;SDS011;38766;53.194;5.532;2023-09-19T04:57:43;12.38;;;2.40;;
51556;SDS011;38766;53.194;5.532;2023-09-19T05:00:19;8.23;;;2.10;;
51556;SDS011;38766;53.194;5.532;2023-09-19T05:02:51;8.85;;;3.10;;
51556;SDS011;38766;53.194;5.532;2023-09-19T05:05:17;7.20;;;2.47;;
51556;SDS011;38766;53.194;5.532;2023-09-19T05:07:44;11.63;;;2.60;;
51556;SDS011;38766;53.194;5.532;2023-09-19T05:10:11;9.82;;;2.33;;
51556;SDS011;38766;53.194;5.532;2023-09-19T05:12:37;5.93;;;1.92;;
51556;SDS011;38766;53.194;5.532;2023-09-19T05:15:04;8.15;;;2.50;;
51556;SDS011;38766;53.194;5.532;2023-09-19T05:17:32;10.60;;;2.50;;
51556;SDS011;38766;53.194;5.532;2023-09-19T05:20:02;6.32;;;1.95;;
51556;SDS011;38766;53.194;5.532;2023-09-19T05:22:31;7.35;;;2.20;;
51556;SDS011;38766;53.194;5.532;2023-09-19T05:24:57;7.03;;;2.15;;
51556;SDS011;38766;53.194;5.532;2023-09-19T05:27:23;11.25;;;2.72;;
51556;SDS011;38766;53.194;5.532;2023-09-19T05:29:49;8.90;;;2.70;;
51556;SDS011;38766;53.194;5.532;2023-09-19T05:32:18;9.57;;;2.38;;
51556;SDS011;38766;53.194;5.532;2023-09-19T05:34:45;13.13;;;3.03;;
51556;SDS011;38766;53.194;5.532;2023-09-19T05:37:12;10.40;;;2.70;;
51556;SDS011;38766;53.194;5.532;2023-09-19T05:39:41;10.63;;;2.35;;
51556;SDS011;38766;53.194;5.532;2023-09-19T05:42:07;10.15;;;2.20;;
51556;SDS011;38766;53.194;5.532;2023-09-19T05:44:33;8.38;;;2.75;;
51556;SDS011;38766;53.194;5.532;2023-09-19T05:46:59;11.13;;;2.33;;
51556;SDS011;38766;53.194;5.532;2023-09-19T05:49:25;10.70;;;2.60;;
51556;SDS011;38766;53.194;5.532;2023-09-19T05:51:50;10.40;;;2.33;;
51556;SDS011;38766;53.194;5.532;2023-09-19T05:54:19;9.15;;;3.15;;
51556;SDS011;38766;53.194;5.532;2023-09-19T05:56:45;9.07;;;2.42;;
51556;SDS011;38766;53.194;5.532;2023-09-19T05:59:12;7.90;;;2.22;;
51556;SDS011;38766;53.194;5.532;2023-09-19T06:01:40;9.60;;;2.92;;
51556;SDS011;38766;53.194;5.532;2023-09-19T06:04:07;9.10;;;2.40;;
51556;SDS011;38766;53.194;5.532;2023-09-19T06:06:33;13.18;;;2.70;;
51556;SDS011;38766;53.194;5.532;2023-09-19T06:09:01;10.80;;;3.08;;
51556;SDS011;38766;53.194;5.532;2023-09-19T06:11:30;11.63;;;3.28;;
51556;SDS011;38766;53.194;5.532;2023-09-19T06:13:57;9.68;;;2.17;;
51556;SDS011;38766;53.194;5.532;2023-09-19T06:16:25;15.13;;;2.40;;
51556;SDS011;38766;53.194;5.532;2023-09-19T06:18:51;8.77;;;2.65;;
51556;SDS011;38766;53.194;5.532;2023-09-19T06:21:18;13.93;;;5.25;;
51556;SDS011;38766;53.194;5.532;2023-09-19T06:23:43;11.00;;;2.33;;
51556;SDS011;38766;53.194;5.532;2023-09-19T06:26:09;11.80;;;3.13;;
51556;SDS011;38766;53.194;5.532;2023-09-19T06:28:35;10.32;;;2.47;;
51556;SDS011;38766;53.194;5.532;2023-09-19T06:31:02;8.63;;;3.00;;
51556;SDS011;38766;53.194;5.532;2023-09-19T06:33:28;5.65;;;2.60;;
51556;SDS011;38766;53.194;5.532;2023-09-19T06:35:56;8.02;;;2.22;;
51556;SDS011;38766;53.194;5.532;2023-09-19T06:38:25;9.45;;;2.40;;
51556;SDS011;38766;53.194;5.532;2023-09-19T06:40:50;12.35;;;3.28;;
51556;SDS011;38766;53.194;5.532;2023-09-19T06:43:16;9.73;;;2.63;;
51556;SDS011;38766;53.194;5.532;2023-09-19T06:45:42;7.63;;;2.35;;
51556;SDS011;38766;53.194;5.532;2023-09-19T06:48:07;10.65;;;3.03;;
51556;SDS011;38766;53.194;5.532;2023-09-19T06:50:35;11.27;;;2.33;;
51556;SDS011;38766;53.194;5.532;2023-09-19T06:53:01;7.07;;;2.53;;
51556;SDS011;38766;53.194;5.532;2023-09-19T06:55:27;9.55;;;2.50;;
51556;SDS011;38766;53.194;5.532;2023-09-19T06:57:53;12.13;;;2.50;;
51556;SDS011;38766;53.194;5.532;2023-09-19T07:00:21;15.98;;;3.22;;
51556;SDS011;38766;53.194;5.532;2023-09-19T07:03:07;10.02;;;2.72;;
51556;SDS011;38766;53.194;5.532;2023-09-19T07:08:02;12.45;;;3.42;;
51556;SDS011;38766;53.194;5.532;2023-09-19T07:10:28;13.43;;;2.90;;
51556;SDS011;38766;53.194;5.532;2023-09-19T07:13:01;11.27;;;2.95;;
51556;SDS011;38766;53.194;5.532;2023-09-19T07:15:29;9.35;;;2.40;;
51556;SDS011;38766;53.194;5.532;2023-09-19T07:17:58;9.00;;;2.80;;
51556;SDS011;38766;53.194;5.532;2023-09-19T07:20:25;9.75;;;2.88;;
51556;SDS011;38766;53.194;5.532;2023-09-19T07:22:51;9.23;;;2.22;;
51556;SDS011;38766;53.194;5.532;2023-09-19T07:25:19;8.75;;;2.45;;
51556;SDS011;38766;53.194;5.532;2023-09-19T07:27:46;11.75;;;2.88;;
51556;SDS011;38766;53.194;5.532;2023-09-19T07:30:12;7.88;;;2.60;;
51556;SDS011;38766;53.194;5.532;2023-09-19T07:32:40;10.48;;;2.40;;
51556;SDS011;38766;53.194;5.532;2023-09-19T07:35:05;9.88;;;2.85;;
51556;SDS011;38766;53.194;5.532;2023-09-19T07:37:31;9.02;;;2.50;;
51556;SDS011;38766;53.194;5.532;2023-09-19T07:40:01;8.52;;;2.63;;
51556;SDS011;38766;53.194;5.532;2023-09-19T07:42:32;10.45;;;2.45;;
51556;SDS011;38766;53.194;5.532;2023-09-19T07:45:00;9.23;;;3.40;;
51556;SDS011;38766;53.194;5.532;2023-09-19T07:47:26;9.60;;;2.50;;
51556;SDS011;38766;53.194;5.532;2023-09-19T07:49:52;10.27;;;3.13;;
51556;SDS011;38766;53.194;5.532;2023-09-19T07:52:18;12.60;;;2.50;;
51556;SDS011;38766;53.194;5.532;2023-09-19T07:54:44;9.20;;;2.70;;
51556;SDS011;38766;53.194;5.532;2023-09-19T07:57:10;11.13;;;3.03;;
51556;SDS011;38766;53.194;5.532;2023-09-19T07:59:36;9.18;;;2.20;;
51556;SDS011;38766;53.194;5.532;2023-09-19T08:02:03;8.80;;;2.80;;
51556;SDS011;38766;53.194;5.532;2023-09-19T08:04:30;12.27;;;2.47;;
51556;SDS011;38766;53.194;5.532;2023-09-19T08:06:57;7.70;;;2.40;;
51556;SDS011;38766;53.194;5.532;2023-09-19T08:09:25;12.90;;;3.10;;
51556;SDS011;38766;53.194;5.532;2023-09-19T08:11:52;11.70;;;2.45;;
51556;SDS011;38766;53.194;5.532;2023-09-19T08:14:18;10.18;;;3.03;;
51556;SDS011;38766;53.194;5.532;2023-09-19T08:16:44;9.63;;;2.65;;
51556;SDS011;38766;53.194;5.532;2023-09-19T08:19:09;8.93;;;3.17;;
51556;SDS011;38766;53.194;5.532;2023-09-19T08:21:36;11.95;;;3.03;;
51556;SDS011;38766;53.194;5.532;2023-09-19T08:24:01;12.65;;;2.70;;
51556;SDS011;38766;53.194;5.532;2023-09-19T08:26:30;8.98;;;2.53;;
51556;SDS011;38766;53.194;5.532;2023-09-19T08:28:56;11.90;;;2.90;;
51556;SDS011;38766;53.194;5.532;2023-09-19T08:31:22;10.77;;;3.03;;
51556;SDS011;38766;53.194;5.532;2023-09-19T08:33:49;12.30;;;3.05;;
51556;SDS011;38766;53.194;5.532;2023-09-19T08:36:16;13.18;;;3.33;;
51556;SDS011;38766;53.194;5.532;2023-09-19T08:38:42;9.00;;;2.63;;
51556;SDS011;38766;53.194;5.532;2023-09-19T08:41:08;11.85;;;3.17;;
51556;SDS011;38766;53.194;5.532;2023-09-19T08:43:34;14.57;;;3.78;;
51556;SDS011;38766;53.194;5.532;2023-09-19T08:46:07;10.55;;;2.80;;
51556;SDS011;38766;53.194;5.532;2023-09-19T08:48:39;16.35;;;3.35;;
51556;SDS011;38766;53.194;5.532;2023-09-19T08:51:26;16.08;;;3.30;;
51556;SDS011;38766;53.194;5.532;2023-09-19T08:53:58;12.98;;;3.40;;
51556;SDS011;38766;53.194;5.532;2023-09-19T08:56:31;18.13;;;3.83;;
51556;SDS011;38766;53.194;5.532;2023-09-19T08:59:04;9.23;;;2.75;;
51556;SDS011;38766;53.194;5.532;2023-09-19T09:01:33;9.93;;;3.05;;
51556;SDS011;38766;53.194;5.532;2023-09-19T09:04:01;11.57;;;3.47;;
51556;SDS011;38766;53.194;5.532;2023-09-19T09:06:27;14.77;;;3.58;;
51556;SDS011;38766;53.194;5.532;2023-09-19T09:08:57;9.18;;;3.05;;
51556;SDS011;38766;53.194;5.532;2023-09-19T09:11:23;11.65;;;3.30;;
51556;SDS011;38766;53.194;5.532;2023-09-19T09:13:53;17.13;;;3.58;;
51556;SDS011;38766;53.194;5.532;2023-09-19T09:16:18;11.55;;;3.00;;
51556;SDS011;38766;53.194;5.532;2023-09-19T09:18:44;12.98;;;3.05;;
51556;SDS011;38766;53.194;5.532;2023-09-19T09:21:11;13.70;;;3.22;;
51556;SDS011;38766;53.194;5.532;2023-09-19T09:23:38;14.60;;;3.28;;
51556;SDS011;38766;53.194;5.532;2023-09-19T09:26:04;11.65;;;3.05;;
51556;SDS011;38766;53.194;5.532;2023-09-19T09:28:32;17.98;;;3.42;;
51556;SDS011;38766;53.194;5.532;2023-09-19T09:31:00;7.55;;;2.78;;
51556;SDS011;38766;53.194;5.532;2023-09-19T09:33:33;13.85;;;4.07;;
51556;SDS011;38766;53.194;5.532;2023-09-19T09:36:00;16.92;;;3.72;;
51556;SDS011;38766;53.194;5.532;2023-09-19T09:38:44;11.00;;;3.75;;
51556;SDS011;38766;53.194;5.532;2023-09-19T09:41:13;15.00;;;3.25;;
51556;SDS011;38766;53.194;5.532;2023-09-19T09:43:52;16.33;;;2.90;;
51556;SDS011;38766;53.194;5.532;2023-09-19T09:46:20;11.65;;;2.92;;
51556;SDS011;38766;53.194;5.532;2023-09-19T09:49:04;11.45;;;3.95;;
51556;SDS011;38766;53.194;5.532;2023-09-19T09:54:15;13.35;;;3.55;;
51556;SDS011;38766;53.194;5.532;2023-09-19T09:56:58;16.27;;;3.17;;
51556;SDS011;38766;53.194;5.532;2023-09-19T09:59:47;13.55;;;3.35;;
51556;SDS011;38766;53.194;5.532;2023-09-19T10:02:18;8.73;;;2.65;;
51556;SDS011;38766;53.194;5.532;2023-09-19T10:04:50;12.55;;;3.50;;
51556;SDS011;38766;53.194;5.532;2023-09-19T10:07:32;10.43;;;2.58;;
51556;SDS011;38766;53.194;5.532;2023-09-19T10:10:03;12.05;;;2.58;;
51556;SDS011;38766;53.194;5.532;2023-09-19T10:12:42;11.52;;;2.95;;
51556;SDS011;38766;53.194;5.532;2023-09-19T10:15:10;15.23;;;3.45;;
51556;SDS011;38766;53.194;5.532;2023-09-19T10:17:36;16.48;;;3.45;;
51556;SDS011;38766;53.194;5.532;2023-09-19T10:20:05;15.70;;;2.85;;
51556;SDS011;38766;53.194;5.532;2023-09-19T10:22:42;17.17;;;3.03;;
51556;SDS011;38766;53.194;5.532;2023-09-19T10:25:12;7.50;;;2.78;;
51556;SDS011;38766;53.194;5.532;2023-09-19T10:27:37;15.60;;;3.00;;
51556;SDS011;38766;53.194;5.532;2023-09-19T10:30:05;11.27;;;2.80;;
51556;SDS011;38766;53.194;5.532;2023-09-19T10:32:33;14.00;;;2.88;;
51556;SDS011;38766;53.194;5.532;2023-09-19T10:35:01;10.52;;;2.80;;
51556;SDS011;38766;53.194;5.532;2023-09-19T10:37:30;12.85;;;2.53;;
51556;SDS011;38766;53.194;5.532;2023-09-19T10:39:59;15.63;;;2.70;;
51556;SDS011;38766;53.194;5.532;2023-09-19T10:42:25;10.15;;;2.60;;
51556;SDS011;38766;53.194;5.532;2023-09-19T10:44:54;12.13;;;3.00;;
51556;SDS011;38766;53.194;5.532;2023-09-19T10:47:25;10.75;;;2.88;;
51556;SDS011;38766;53.194;5.532;2023-09-19T10:49:51;11.68;;;3.50;;
51556;SDS011;38766;53.194;5.532;2023-09-19T10:52:19;11.27;;;3.30;;
51556;SDS011;38766;53.194;5.532;2023-09-19T10:54:48;13.48;;;3.33;;
51556;SDS011;38766;53.194;5.532;2023-09-19T10:57:20;14.35;;;3.28;;
51556;SDS011;38766;53.194;5.532;2023-09-19T11:00:01;16.90;;;3.50;;
51556;SDS011;38766;53.194;5.532;2023-09-19T11:06:02;9.75;;;3.17;;
51556;SDS011;38766;53.194;5.532;2023-09-19T11:30:43;13.05;;;3.65;;
51556;SDS011;38766;53.194;5.532;2023-09-19T11:36:01;15.63;;;4.40;;
51556;SDS011;38766;53.194;5.532;2023-09-19T11:46:31;13.05;;;3.92;;
51556;SDS011;38766;53.194;5.532;2023-09-19T11:49:05;15.30;;;3.92;;
51556;SDS011;38766;53.194;5.532;2023-09-19T11:51:41;12.50;;;3.83;;
51556;SDS011;38766;53.194;5.532;2023-09-19T11:54:10;10.43;;;4.00;;
51556;SDS011;38766;53.194;5.532;2023-09-19T11:59:09;7.93;;;3.00;;
51556;SDS011;38766;53.194;5.532;2023-09-19T12:01:35;13.52;;;3.30;;
51556;SDS011;38766;53.194;5.532;2023-09-19T12:04:08;7.72;;;2.90;;
51556;SDS011;38766;53.194;5.532;2023-09-19T12:06:37;9.25;;;3.05;;
51556;SDS011;38766;53.194;5.532;2023-09-19T12:09:07;12.75;;;3.42;;
51556;SDS011;38766;53.194;5.532;2023-09-19T12:11:41;11.90;;;3.47;;
51556;SDS011;38766;53.194;5.532;2023-09-19T12:14:10;11.38;;;3.30;;
51556;SDS011;38766;53.194;5.532;2023-09-19T12:16:36;9.02;;;3.17;;
51556;SDS011;38766;53.194;5.532;2023-09-19T12:19:19;9.05;;;3.33;;
51556;SDS011;38766;53.194;5.532;2023-09-19T12:21:53;10.35;;;2.80;;
51556;SDS011;38766;53.194;5.532;2023-09-19T12:24:24;10.65;;;2.90;;
51556;SDS011;38766;53.194;5.532;2023-09-19T12:26:55;7.20;;;2.78;;
51556;SDS011;38766;53.194;5.532;2023-09-19T12:29:26;11.10;;;3.05;;
51556;SDS011;38766;53.194;5.532;2023-09-19T12:31:58;15.23;;;3.75;;
51556;SDS011;38766;53.194;5.532;2023-09-19T12:34:31;11.82;;;3.42;;
51556;SDS011;38766;53.194;5.532;2023-09-19T12:37:04;8.07;;;2.80;;
51556;SDS011;38766;53.194;5.532;2023-09-19T12:39:46;11.05;;;3.45;;
51556;SDS011;38766;53.194;5.532;2023-09-19T12:42:21;11.55;;;3.47;;
51556;SDS011;38766;53.194;5.532;2023-09-19T12:44:49;9.98;;;3.38;;
51556;SDS011;38766;53.194;5.532;2023-09-19T12:47:22;11.15;;;3.58;;
51556;SDS011;38766;53.194;5.532;2023-09-19T12:52:47;9.95;;;3.33;;
51556;SDS011;38766;53.194;5.532;2023-09-19T12:55:24;13.95;;;3.95;;
51556;SDS011;38766;53.194;5.532;2023-09-19T13:00:36;15.45;;;3.63;;
51556;SDS011;38766;53.194;5.532;2023-09-19T13:03:13;14.20;;;4.15;;
51556;SDS011;38766;53.194;5.532;2023-09-19T13:05:55;10.50;;;4.00;;
51556;SDS011;38766;53.194;5.532;2023-09-19T13:11:16;12.95;;;3.58;;
51556;SDS011;38766;53.194;5.532;2023-09-19T13:19:37;13.45;;;3.88;;
51556;SDS011;38766;53.194;5.532;2023-09-19T13:22:05;10.50;;;3.53;;
51556;SDS011;38766;53.194;5.532;2023-09-19T13:24:51;10.85;;;3.85;;
51556;SDS011;38766;53.194;5.532;2023-09-19T13:27:17;13.30;;;4.15;;
51556;SDS011;38766;53.194;5.532;2023-09-19T13:29:42;15.00;;;4.13;;
51556;SDS011;38766;53.194;5.532;2023-09-19T13:32:08;14.55;;;4.20;;
51556;SDS011;38766;53.194;5.532;2023-09-19T13:34:36;13.52;;;4.68;;
51556;SDS011;38766;53.194;5.532;2023-09-19T13:37:03;15.10;;;4.10;;
51556;SDS011;38766;53.194;5.532;2023-09-19T13:39:29;12.18;;;4.10;;
51556;SDS011;38766;53.194;5.532;2023-09-19T13:41:55;18.95;;;4.68;;
51556;SDS011;38766;53.194;5.532;2023-09-19T13:44:21;14.20;;;4.53;;
51556;SDS011;38766;53.194;5.532;2023-09-19T13:46:47;17.60;;;4.38;;
51556;SDS011;38766;53.194;5.532;2023-09-19T13:49:12;19.10;;;4.95;;
51556;SDS011;38766;53.194;5.532;2023-09-19T13:51:38;15.35;;;4.45;;
51556;SDS011;38766;53.194;5.532;2023-09-19T13:54:04;13.05;;;4.63;;
51556;SDS011;38766;53.194;5.532;2023-09-19T13:56:30;17.30;;;4.13;;
51556;SDS011;38766;53.194;5.532;2023-09-19T13:58:57;15.68;;;4.35;;
51556;SDS011;38766;53.194;5.532;2023-09-19T14:01:22;20.63;;;4.75;;
51556;SDS011;38766;53.194;5.532;2023-09-19T14:03:48;29.60;;;6.22;;
51556;SDS011;38766;53.194;5.532;2023-09-19T14:06:16;21.48;;;5.30;;
51556;SDS011;38766;53.194;5.532;2023-09-19T14:08:42;29.40;;;6.00;;
51556;SDS011;38766;53.194;5.532;2023-09-19T14:11:12;22.83;;;5.18;;
51556;SDS011;38766;53.194;5.532;2023-09-19T14:13:39;19.50;;;5.63;;
51556;SDS011;38766;53.194;5.532;2023-09-19T14:16:05;19.05;;;4.75;;
51556;SDS011;38766;53.194;5.532;2023-09-19T14:18:34;17.05;;;4.55;;
51556;SDS011;38766;53.194;5.532;2023-09-19T14:21:04;17.20;;;4.38;;
51556;SDS011;38766;53.194;5.532;2023-09-19T14:23:39;16.08;;;5.22;;
51556;SDS011;38766;53.194;5.532;2023-09-19T14:26:06;22.45;;;6.18;;
51556;SDS011;38766;53.194;5.532;2023-09-19T14:28:32;25.40;;;5.20;;
51556;SDS011;38766;53.194;5.532;2023-09-19T14:31:05;20.77;;;4.63;;
51556;SDS011;38766;53.194;5.532;2023-09-19T14:33:32;18.88;;;4.43;;
51556;SDS011;38766;53.194;5.532;2023-09-19T14:35:57;21.33;;;5.30;;
51556;SDS011;38766;53.194;5.532;2023-09-19T14:38:23;21.73;;;5.45;;
51556;SDS011;38766;53.194;5.532;2023-09-19T14:40:49;26.33;;;5.30;;
51556;SDS011;38766;53.194;5.532;2023-09-19T14:45:49;23.85;;;5.80;;
51556;SDS011;38766;53.194;5.532;2023-09-19T14:48:14;22.80;;;6.15;;
51556;SDS011;38766;53.194;5.532;2023-09-19T14:50:40;23.05;;;5.22;;
51556;SDS011;38766;53.194;5.532;2023-09-19T14:53:06;22.00;;;6.55;;
51556;SDS011;38766;53.194;5.532;2023-09-19T14:55:38;30.23;;;5.97;;
51556;SDS011;38766;53.194;5.532;2023-09-19T14:58:06;25.25;;;5.95;;
51556;SDS011;38766;53.194;5.532;2023-09-19T15:00:33;25.13;;;5.68;;
51556;SDS011;38766;53.194;5.532;2023-09-19T15:02:59;20.23;;;5.20;;
51556;SDS011;38766;53.194;5.532;2023-09-19T15:05:25;25.13;;;5.95;;
51556;SDS011;38766;53.194;5.532;2023-09-19T15:07:50;22.80;;;5.03;;
51556;SDS011;38766;53.194;5.532;2023-09-19T15:10:16;26.30;;;6.20;;
51556;SDS011;38766;53.194;5.532;2023-09-19T15:12:43;31.35;;;6.38;;
51556;SDS011;38766;53.194;5.532;2023-09-19T15:15:09;24.85;;;5.35;;
51556;SDS011;38766;53.194;5.532;2023-09-19T15:17:35;20.67;;;6.53;;
51556;SDS011;38766;53.194;5.532;2023-09-19T15:20:01;21.00;;;6.50;;
51556;SDS011;38766;53.194;5.532;2023-09-19T15:22:28;25.13;;;6.20;;
51556;SDS011;38766;53.194;5.532;2023-09-19T15:24:53;26.00;;;5.93;;
51556;SDS011;38766;53.194;5.532;2023-09-19T15:27:20;22.85;;;5.53;;
51556;SDS011;38766;53.194;5.532;2023-09-19T15:29:46;20.05;;;5.22;;
51556;SDS011;38766;53.194;5.532;2023-09-19T15:32:12;21.10;;;5.28;;
51556;SDS011;38766;53.194;5.532;2023-09-19T15:34:38;19.55;;;5.97;;
51556;SDS011;38766;53.194;5.532;2023-09-19T15:37:04;36.13;;;7.93;;
51556;SDS011;38766;53.194;5.532;2023-09-19T15:39:30;25.20;;;5.43;;
51556;SDS011;38766;53.194;5.532;2023-09-19T15:41:58;23.63;;;6.65;;
51556;SDS011;38766;53.194;5.532;2023-09-19T15:44:24;28.05;;;6.40;;
51556;SDS011;38766;53.194;5.532;2023-09-19T15:46:53;22.38;;;6.20;;
51556;SDS011;38766;53.194;5.532;2023-09-19T15:49:18;23.60;;;6.25;;
51556;SDS011;38766;53.194;5.532;2023-09-19T15:51:45;28.42;;;7.25;;
51556;SDS011;38766;53.194;5.532;2023-09-19T15:54:11;24.02;;;5.72;;
51556;SDS011;38766;53.194;5.532;2023-09-19T15:56:45;22.42;;;6.05;;
51556;SDS011;38766;53.194;5.532;2023-09-19T15:59:12;23.20;;;6.25;;
51556;SDS011;38766;53.194;5.532;2023-09-19T16:01:38;28.50;;;7.82;;
51556;SDS011;38766;53.194;5.532;2023-09-19T16:04:05;29.15;;;6.15;;
51556;SDS011;38766;53.194;5.532;2023-09-19T16:06:33;29.23;;;6.57;;
51556;SDS011;38766;53.194;5.532;2023-09-19T16:09:00;23.92;;;5.75;;
51556;SDS011;38766;53.194;5.532;2023-09-19T16:11:29;28.77;;;7.15;;